createdAt,value
2018-12-21T00:00:22.517Z,21.37
2018-12-21T00:02:50.927Z,17.77
2018-12-21T00:05:20.180Z,17.37
2018-12-21T00:07:48.576Z,17.23
2018-12-21T00:10:16.956Z,18.30
2018-12-21T00:12:45.471Z,17.40
2018-12-21T00:15:20.414Z,16.97
2018-12-21T00:17:49.189Z,22.23
2018-12-21T00:20:17.558Z,19.97
2018-12-21T00:22:45.997Z,21.37
2018-12-21T00:25:14.881Z,19.13
2018-12-21T00:27:43.368Z,18.37
2018-12-21T00:30:11.832Z,19.20
2018-12-21T00:32:45.857Z,17.00
2018-12-21T00:35:19.343Z,20.80
2018-12-21T00:37:53.685Z,18.23
2018-12-21T00:40:27.646Z,18.43
2018-12-21T00:43:13.773Z,17.07
2018-12-21T00:45:44.598Z,17.63
2018-12-21T00:48:13.044Z,16.47
2018-12-21T00:50:42.041Z,18.40
2018-12-21T00:53:10.814Z,18.70
2018-12-21T00:55:39.233Z,18.00
2018-12-21T00:58:07.792Z,18.50
2018-12-21T01:00:36.294Z,19.03
2018-12-21T01:03:06.643Z,17.43
2018-12-21T01:05:35.277Z,19.73
2018-12-21T01:08:03.794Z,15.90
2018-12-21T01:10:32.397Z,14.53
2018-12-21T01:13:00.898Z,18.77
2018-12-21T01:15:29.272Z,18.80
2018-12-21T01:17:57.781Z,16.87
2018-12-21T01:20:26.404Z,18.37
2018-12-21T01:22:54.916Z,16.60
2018-12-21T01:25:23.364Z,18.33
2018-12-21T01:27:52.625Z,14.97
2018-12-21T01:30:21.029Z,17.33
2018-12-21T01:32:49.439Z,16.83
2018-12-21T01:35:17.922Z,17.63
2018-12-21T01:37:46.445Z,17.17
2018-12-21T01:40:15.358Z,17.53
2018-12-21T01:42:43.856Z,17.73
2018-12-21T01:45:12.246Z,17.23
2018-12-21T01:47:40.693Z,17.57
2018-12-21T01:50:09.225Z,18.17
2018-12-21T01:52:37.614Z,17.17
2018-12-21T01:55:06.290Z,17.37
2018-12-21T01:57:34.853Z,19.43
2018-12-21T02:00:04.029Z,20.17
2018-12-21T02:02:32.445Z,18.80
2018-12-21T02:05:07.306Z,18.33
2018-12-21T02:07:35.870Z,17.00
2018-12-21T02:10:04.719Z,18.47
2018-12-21T02:12:33.985Z,20.67
2018-12-21T02:15:02.388Z,17.10
2018-12-21T02:17:30.898Z,18.70
2018-12-21T02:19:59.568Z,19.07
2018-12-21T02:22:28.007Z,20.43
2018-12-21T02:24:56.401Z,18.40
2018-12-21T02:27:25.312Z,20.57
2018-12-21T02:29:53.946Z,19.17
2018-12-21T02:32:22.354Z,20.20
2018-12-21T02:34:51.093Z,20.13
2018-12-21T02:37:19.517Z,21.13
2018-12-21T02:39:48.228Z,17.53
2018-12-21T02:42:16.878Z,20.50
2018-12-21T02:44:45.677Z,19.40
2018-12-21T02:47:17.165Z,24.87
2018-12-21T02:49:52.241Z,21.53
2018-12-21T02:52:21.077Z,22.50
2018-12-21T02:54:49.468Z,21.30
2018-12-21T02:57:17.918Z,22.40
2018-12-21T02:59:46.500Z,21.90
2018-12-21T03:02:15.025Z,18.97
2018-12-21T03:04:43.463Z,19.50
2018-12-21T03:07:12.036Z,23.70
2018-12-21T03:09:40.430Z,19.27
2018-12-21T03:12:08.892Z,21.33
2018-12-21T03:14:37.481Z,23.07
2018-12-21T03:17:06.411Z,21.73
2018-12-21T03:19:34.848Z,21.93
2018-12-21T03:22:03.581Z,22.67
2018-12-21T03:24:32.153Z,20.00
2018-12-21T03:27:00.600Z,18.10
2018-12-21T03:29:29.242Z,23.10
2018-12-21T03:31:57.748Z,20.80
2018-12-21T03:34:26.463Z,22.13
2018-12-21T03:36:55.274Z,23.53
2018-12-21T03:39:23.901Z,21.03
2018-12-21T03:41:52.327Z,24.60
2018-12-21T03:44:21.174Z,19.87
2018-12-21T03:46:49.575Z,22.27
2018-12-21T03:49:18.018Z,21.30
2018-12-21T03:51:46.795Z,20.30
2018-12-21T03:54:15.393Z,20.83
2018-12-21T03:56:44.039Z,19.73
2018-12-21T03:59:12.680Z,17.73
2018-12-21T04:01:41.117Z,21.87
2018-12-21T04:04:09.609Z,21.40
2018-12-21T04:06:38.245Z,19.40
2018-12-21T04:09:07.297Z,22.00
2018-12-21T04:11:35.742Z,20.13
2018-12-21T04:14:04.405Z,24.87
2018-12-21T04:16:32.892Z,21.63
2018-12-21T04:19:01.659Z,19.07
2018-12-21T04:21:36.942Z,21.60
2018-12-21T04:24:05.521Z,20.23
2018-12-21T04:26:33.982Z,18.93
2018-12-21T04:29:02.904Z,18.40
2018-12-21T04:31:31.431Z,19.80
2018-12-21T04:33:59.900Z,20.97
2018-12-21T04:36:28.967Z,18.13
2018-12-21T04:38:57.381Z,19.23
2018-12-21T04:41:32.761Z,16.63
2018-12-21T04:44:01.289Z,19.20
2018-12-21T04:46:29.691Z,18.97
2018-12-21T04:48:58.182Z,17.87
2018-12-21T04:51:26.628Z,19.50
2018-12-21T04:53:57.351Z,17.97
2018-12-21T04:56:25.617Z,18.93
2018-12-21T04:58:54.068Z,19.90
2018-12-21T05:01:22.449Z,17.47
2018-12-21T05:03:51.610Z,18.63
2018-12-21T05:06:20.118Z,17.10
2018-12-21T05:08:49.325Z,19.63
2018-12-21T05:11:18.214Z,20.10
2018-12-21T05:13:46.844Z,19.20
2018-12-21T05:16:15.243Z,20.20
2018-12-21T05:18:44.028Z,20.90
2018-12-21T05:21:12.460Z,18.40
2018-12-21T05:23:41.136Z,17.23
2018-12-21T05:26:10.337Z,14.73
2018-12-21T05:28:38.763Z,15.27
2018-12-21T05:31:07.294Z,16.57
2018-12-21T05:33:36.145Z,16.40
2018-12-21T05:36:05.009Z,20.33
2018-12-21T05:38:33.415Z,20.30
2018-12-21T05:41:02.124Z,19.03
2018-12-21T05:43:30.677Z,17.30
2018-12-21T05:46:00.283Z,18.67
2018-12-21T05:48:29.228Z,21.23
2018-12-21T05:50:57.705Z,15.87
2018-12-21T05:53:26.381Z,18.63
2018-12-21T05:55:55.184Z,15.50
2018-12-21T05:58:23.635Z,18.60
2018-12-21T06:00:52.045Z,14.50
2018-12-21T06:03:20.523Z,15.90
2018-12-21T06:05:48.962Z,17.10
2018-12-21T06:08:17.352Z,18.50
2018-12-21T06:10:46.054Z,15.97
2018-12-21T06:13:14.562Z,19.67
2018-12-21T06:15:42.995Z,15.97
2018-12-21T06:18:11.754Z,20.67
2018-12-21T06:20:40.358Z,21.60
2018-12-21T06:23:09.561Z,16.83
2018-12-21T06:25:38.639Z,20.83
2018-12-21T06:28:07.087Z,16.63
2018-12-21T06:30:35.478Z,18.13
2018-12-21T06:33:04.097Z,16.47
2018-12-21T06:35:32.585Z,19.43
2018-12-21T06:38:01.073Z,17.30
2018-12-21T06:40:29.723Z,16.07
2018-12-21T06:42:58.137Z,15.33
2018-12-21T06:45:26.508Z,16.93
2018-12-21T06:47:55.021Z,15.60
2018-12-21T06:50:23.438Z,17.33
2018-12-21T06:52:51.932Z,16.20
2018-12-21T06:55:20.438Z,15.23
2018-12-21T06:57:48.934Z,18.97
2018-12-21T07:00:17.437Z,13.63
2018-12-21T07:02:46.357Z,21.23
2018-12-21T07:05:14.861Z,15.00
2018-12-21T07:07:43.257Z,14.73
2018-12-21T07:10:12.458Z,13.70
2018-12-21T07:12:40.932Z,16.73
2018-12-21T07:15:09.707Z,18.57
2018-12-21T07:17:39.032Z,18.63
2018-12-21T07:20:09.722Z,15.93
2018-12-21T07:22:38.516Z,18.63
2018-12-21T07:25:08.455Z,14.87
2018-12-21T07:27:36.856Z,20.07
2018-12-21T07:30:07.380Z,14.43
2018-12-21T07:32:36.089Z,14.87
2018-12-21T07:35:05.140Z,11.93
2018-12-21T07:37:33.613Z,13.37
2018-12-21T07:40:02.505Z,13.37
2018-12-21T07:42:30.945Z,17.00
2018-12-21T07:44:59.352Z,15.60
2018-12-21T07:47:27.921Z,14.50
2018-12-21T07:49:56.432Z,14.70
2018-12-21T07:52:28.289Z,14.43
2018-12-21T07:54:56.908Z,12.93
2018-12-21T07:57:25.604Z,18.20
2018-12-21T07:59:54.037Z,14.97
2018-12-21T08:02:22.513Z,12.60
2018-12-21T08:04:50.886Z,12.37
2018-12-21T08:07:19.340Z,12.67
2018-12-21T08:09:47.844Z,12.17
2018-12-21T08:12:16.236Z,11.77
2018-12-21T08:14:44.727Z,13.67
2018-12-21T08:17:13.312Z,14.93
2018-12-21T08:19:41.785Z,12.30
2018-12-21T08:22:10.342Z,15.03
2018-12-21T08:24:38.853Z,12.07
2018-12-21T08:27:07.520Z,10.93
2018-12-21T08:29:36.086Z,11.80
2018-12-21T08:32:04.620Z,11.83
2018-12-21T08:34:33.229Z,12.10
2018-12-21T08:37:01.987Z,13.03
2018-12-21T08:39:30.469Z,14.57
2018-12-21T08:41:59.248Z,13.50
2018-12-21T08:44:27.988Z,10.73
2018-12-21T08:46:56.675Z,11.70
2018-12-21T08:49:25.077Z,11.43
2018-12-21T08:51:53.621Z,14.73
2018-12-21T08:54:22.425Z,12.63
2018-12-21T08:56:50.828Z,12.10
2018-12-21T08:59:19.244Z,12.47
2018-12-21T09:01:48.202Z,14.20
2018-12-21T09:04:16.609Z,9.87
2018-12-21T09:06:45.038Z,13.17
2018-12-21T09:09:14.374Z,11.37
2018-12-21T09:11:42.797Z,12.03
2018-12-21T09:14:11.515Z,10.60
2018-12-21T09:16:40.234Z,12.00
2018-12-21T09:19:08.764Z,11.60
2018-12-21T09:21:37.244Z,10.33
2018-12-21T09:24:05.747Z,14.07
2018-12-21T09:26:34.184Z,15.67
2018-12-21T09:29:02.649Z,11.67
2018-12-21T09:31:31.787Z,13.03
2018-12-21T09:34:00.172Z,11.40
2018-12-21T09:36:28.629Z,13.20
2018-12-21T09:38:57.237Z,11.67
2018-12-21T09:41:25.657Z,12.37
2018-12-21T09:43:54.158Z,12.37
2018-12-21T09:46:22.661Z,14.30
2018-12-21T09:48:51.098Z,11.77
2018-12-21T09:51:19.531Z,14.13
2018-12-21T09:53:48.353Z,12.23
2018-12-21T09:56:16.739Z,13.40
2018-12-21T09:58:45.178Z,12.10
2018-12-21T10:01:13.675Z,13.10
2018-12-21T10:03:42.265Z,14.27
2018-12-21T10:06:10.737Z,13.27
2018-12-21T10:08:39.252Z,14.93
2018-12-21T10:11:07.653Z,12.13
2018-12-21T10:13:36.125Z,11.23
2018-12-21T10:16:04.622Z,11.83
2018-12-21T10:18:33.181Z,11.50
2018-12-21T10:21:01.860Z,13.13
2018-12-21T10:23:30.802Z,9.43
2018-12-21T10:25:59.268Z,9.97
2018-12-21T10:28:27.764Z,10.87
2018-12-21T10:30:56.264Z,14.07
2018-12-21T10:33:24.693Z,11.50
2018-12-21T10:35:53.392Z,14.43
2018-12-21T10:38:22.238Z,12.80
2018-12-21T10:40:50.633Z,12.30
2018-12-21T10:43:19.256Z,12.03
2018-12-21T10:45:48.046Z,11.37
2018-12-21T10:48:16.435Z,13.23
2018-12-21T10:50:44.873Z,14.60
2018-12-21T10:53:13.736Z,11.70
2018-12-21T10:55:42.149Z,10.93
2018-12-21T10:58:11.347Z,13.27
2018-12-21T11:00:40.223Z,10.27
2018-12-21T11:03:08.654Z,12.83
2018-12-21T11:05:37.223Z,14.07
2018-12-21T11:08:06.213Z,11.50
2018-12-21T11:10:34.695Z,9.57
2018-12-21T11:13:03.132Z,11.37
2018-12-21T11:15:31.660Z,14.53
2018-12-21T11:18:00.070Z,11.20
2018-12-21T11:20:28.694Z,12.27
2018-12-21T11:22:57.314Z,12.13
2018-12-21T11:25:25.759Z,12.67
2018-12-21T11:27:54.337Z,12.13
2018-12-21T11:30:23.013Z,12.43
2018-12-21T11:32:51.505Z,11.57
2018-12-21T11:35:20.011Z,12.10
2018-12-21T11:37:48.622Z,13.67
2018-12-21T11:40:17.147Z,11.00
2018-12-21T11:42:45.576Z,11.97
2018-12-21T11:45:14.111Z,10.53
2018-12-21T11:47:42.644Z,11.57
2018-12-21T11:50:12.211Z,11.57
2018-12-21T11:52:41.010Z,13.70
2018-12-21T11:55:09.573Z,10.77
2018-12-21T11:57:38.012Z,11.30
2018-12-21T12:00:08.917Z,10.63
2018-12-21T12:02:37.313Z,11.87
2018-12-21T12:05:06.217Z,13.50
2018-12-21T12:07:34.716Z,9.77
2018-12-21T12:10:03.297Z,10.53
2018-12-21T12:12:31.816Z,13.40
2018-12-21T12:15:00.671Z,13.03
2018-12-21T12:17:29.139Z,12.70
2018-12-21T12:19:57.683Z,10.07
2018-12-21T12:22:26.471Z,9.47
2018-12-21T12:24:55.463Z,9.63
2018-12-21T12:27:24.232Z,9.90
2018-12-21T12:29:53.078Z,8.90
2018-12-21T12:32:21.485Z,9.63
2018-12-21T12:34:49.902Z,9.83
2018-12-21T12:37:19.444Z,8.87
2018-12-21T12:39:47.833Z,9.73
2018-12-21T12:42:16.288Z,8.53
2018-12-21T12:44:44.928Z,9.03
2018-12-21T12:47:13.507Z,9.57
2018-12-21T12:49:42.169Z,8.27
2018-12-21T12:52:10.670Z,9.77
2018-12-21T12:54:39.089Z,9.03
2018-12-21T12:57:07.635Z,8.30
2018-12-21T12:59:36.148Z,7.57
2018-12-21T13:02:04.665Z,8.63
2018-12-21T13:04:33.114Z,6.80
2018-12-21T13:07:01.806Z,4.70
2018-12-21T13:09:30.205Z,7.07
2018-12-21T13:11:58.628Z,7.53
2018-12-21T13:14:27.962Z,8.63
2018-12-21T13:16:56.352Z,6.37
2018-12-21T13:19:24.799Z,7.20
2018-12-21T13:21:53.388Z,5.20
2018-12-21T13:24:21.773Z,7.27
2018-12-21T13:26:50.318Z,6.07
2018-12-21T13:29:19.074Z,4.30
2018-12-21T13:31:47.476Z,6.63
2018-12-21T13:34:15.921Z,5.03
2018-12-21T13:36:44.500Z,6.07
2018-12-21T13:39:12.976Z,5.90
2018-12-21T13:41:41.453Z,5.37
2018-12-21T13:44:10.034Z,4.90
2018-12-21T13:46:38.477Z,6.07
2018-12-21T13:49:06.950Z,4.50
2018-12-21T13:51:35.647Z,7.73
2018-12-21T13:54:04.080Z,3.90
2018-12-21T13:56:32.956Z,5.47
2018-12-21T13:59:04.475Z,5.07
2018-12-21T14:01:43.343Z,4.50
2018-12-21T14:04:16.695Z,4.40
2018-12-21T14:06:45.196Z,2.83
2018-12-21T14:09:13.609Z,3.83
2018-12-21T14:11:42.289Z,5.77
2018-12-21T14:14:10.757Z,4.23
2018-12-21T14:16:39.164Z,4.37
2018-12-21T14:19:07.742Z,3.33
2018-12-21T14:21:36.305Z,4.43
2018-12-21T14:24:04.753Z,3.87
2018-12-21T14:26:33.300Z,3.60
2018-12-21T14:29:01.722Z,3.40
2018-12-21T14:31:33.805Z,4.07
2018-12-21T14:34:05.513Z,2.37
2018-12-21T14:36:34.625Z,3.40
2018-12-21T14:39:06.635Z,7.83
2018-12-21T14:41:36.234Z,4.40
2018-12-21T14:44:08.707Z,4.97
2018-12-21T14:46:39.427Z,3.17
2018-12-21T14:49:09.905Z,4.13
2018-12-21T14:51:39.156Z,3.83
2018-12-21T14:54:09.025Z,4.33
2018-12-21T14:56:38.447Z,3.27
2018-12-21T14:59:07.574Z,4.83
2018-12-21T15:01:37.526Z,4.17
2018-12-21T15:04:10.016Z,4.70
2018-12-21T15:06:45.240Z,3.90
2018-12-21T15:09:13.842Z,4.90
2018-12-21T15:11:42.254Z,5.27
2018-12-21T15:14:10.671Z,5.90
2018-12-21T15:16:39.813Z,4.20
2018-12-21T15:19:08.293Z,4.07
2018-12-21T15:21:36.837Z,4.83
2018-12-21T15:24:05.493Z,5.20
2018-12-21T15:26:33.892Z,4.63
2018-12-21T15:29:02.423Z,6.57
2018-12-21T15:31:30.969Z,5.57
2018-12-21T15:33:59.709Z,6.07
2018-12-21T15:36:28.210Z,6.50
2018-12-21T15:38:56.724Z,4.60
2018-12-21T15:41:25.197Z,5.03
2018-12-21T15:43:53.626Z,5.03
2018-12-21T15:46:22.352Z,9.40
2018-12-21T15:48:50.857Z,6.63
2018-12-21T15:51:19.302Z,5.97
2018-12-21T15:53:48.137Z,4.97
2018-12-21T15:56:16.707Z,5.23
2018-12-21T15:58:45.197Z,6.13
2018-12-21T16:01:13.890Z,5.83
2018-12-21T16:03:42.313Z,5.23
2018-12-21T16:06:10.768Z,4.43
2018-12-21T16:08:39.340Z,4.87
2018-12-21T16:11:07.744Z,4.97
2018-12-21T16:13:36.622Z,5.87
2018-12-21T16:16:06.177Z,8.17
2018-12-21T16:18:34.579Z,5.87
2018-12-21T16:21:02.961Z,4.83
2018-12-21T16:23:31.516Z,6.13
2018-12-21T16:26:03.646Z,5.20
2018-12-21T16:28:30.342Z,6.57
2018-12-21T16:30:59.081Z,5.20
2018-12-21T16:33:27.548Z,6.03
2018-12-21T16:35:56.033Z,4.83
2018-12-21T16:38:25.057Z,4.80
2018-12-21T16:40:53.787Z,6.73
2018-12-21T16:43:22.246Z,11.57
2018-12-21T16:45:51.010Z,3.50
2018-12-21T16:48:19.453Z,5.70
2018-12-21T16:50:47.887Z,5.70
2018-12-21T16:53:16.686Z,5.97
2018-12-21T16:55:45.285Z,5.63
2018-12-21T16:58:13.757Z,7.37
2018-12-21T17:00:42.796Z,5.37
2018-12-21T17:03:15.570Z,5.60
2018-12-21T17:05:41.687Z,3.97
2018-12-21T17:08:10.270Z,5.23
2018-12-21T17:10:38.670Z,4.73
2018-12-21T17:13:07.193Z,5.17
2018-12-21T17:15:35.728Z,7.10
2018-12-21T17:18:04.678Z,4.97
2018-12-21T17:20:33.341Z,6.23
2018-12-21T17:23:02.282Z,7.47
2018-12-21T17:25:31.654Z,4.53
2018-12-21T17:28:01.244Z,5.10
2018-12-21T17:30:29.889Z,5.83
2018-12-21T17:32:58.405Z,5.10
2018-12-21T17:35:26.935Z,4.77
2018-12-21T17:37:55.706Z,4.80
2018-12-21T17:40:24.231Z,6.33
2018-12-21T17:42:52.790Z,4.13
2018-12-21T17:45:21.363Z,6.43
2018-12-21T17:47:49.833Z,5.03
2018-12-21T17:50:18.585Z,7.17
2018-12-21T17:52:47.117Z,4.63
2018-12-21T17:55:15.584Z,5.27
2018-12-21T17:57:44.252Z,4.47
2018-12-21T18:00:16.528Z,7.30
2018-12-21T18:02:47.172Z,7.30
2018-12-21T18:05:16.188Z,7.97
2018-12-21T18:07:44.775Z,4.90
2018-12-21T18:10:13.529Z,7.07
2018-12-21T18:12:42.516Z,7.40
2018-12-21T18:15:11.299Z,6.57
2018-12-21T18:17:39.762Z,4.73
2018-12-21T18:20:14.901Z,6.20
2018-12-21T18:22:46.520Z,4.90
2018-12-21T18:25:18.360Z,5.27
2018-12-21T18:27:49.740Z,6.90
2018-12-21T18:30:26.266Z,7.77
2018-12-21T18:32:54.685Z,5.97
2018-12-21T18:35:23.416Z,6.07
2018-12-21T18:37:57.361Z,7.20
2018-12-21T18:40:26.033Z,5.50
2018-12-21T18:42:54.430Z,4.53
2018-12-21T18:45:23.005Z,5.83
2018-12-21T18:47:51.591Z,7.40
2018-12-21T18:50:20.002Z,6.47
2018-12-21T18:52:48.781Z,7.43
2018-12-21T18:55:18.642Z,5.53
2018-12-21T18:57:47.877Z,5.60
2018-12-21T19:00:17.321Z,5.17
2018-12-21T19:02:47.791Z,6.43
2018-12-21T19:05:16.327Z,4.13
2018-12-21T19:07:45.590Z,5.07
2018-12-21T19:10:15.889Z,6.13
2018-12-21T19:12:46.326Z,4.20
2018-12-21T19:15:14.993Z,5.13
2018-12-21T19:17:46.479Z,5.47
2018-12-21T19:20:15.785Z,5.80
2018-12-21T19:22:44.696Z,4.07
2018-12-21T19:25:13.518Z,6.73
2018-12-21T19:27:44.237Z,6.00
2018-12-21T19:30:13.217Z,4.90
2018-12-21T19:32:42.651Z,4.57
2018-12-21T19:35:12.626Z,5.43
2018-12-21T19:37:41.061Z,5.17
2018-12-21T19:40:11.163Z,6.33
2018-12-21T19:42:40.342Z,5.17
2018-12-21T19:45:11.376Z,5.70
2018-12-21T19:47:40.720Z,5.93
2018-12-21T19:50:11.616Z,4.87
2018-12-21T19:52:40.638Z,4.73
2018-12-21T19:55:32.069Z,5.63
2018-12-21T19:58:00.671Z,5.87
2018-12-21T20:00:29.207Z,4.57
2018-12-21T20:02:58.872Z,6.50
2018-12-21T20:05:27.389Z,5.93
2018-12-21T20:07:55.904Z,4.83
2018-12-21T20:10:24.637Z,5.30
2018-12-21T20:12:53.144Z,4.90
2018-12-21T20:15:21.547Z,5.07
2018-12-21T20:17:50.589Z,6.03
2018-12-21T20:20:19.405Z,4.03
2018-12-21T20:22:48.114Z,4.77
2018-12-21T20:25:17.372Z,4.50
2018-12-21T20:27:45.812Z,5.83
2018-12-21T20:30:17.438Z,5.23
2018-12-21T20:32:46.503Z,5.70
2018-12-21T20:35:15.340Z,5.10
2018-12-21T20:37:44.061Z,5.20
2018-12-21T20:40:13.285Z,5.10
2018-12-21T20:42:41.788Z,5.80
2018-12-21T20:45:11.310Z,6.33
2018-12-21T20:47:40.191Z,4.67
2018-12-21T20:50:12.340Z,6.03
2018-12-21T20:52:41.361Z,4.90
2018-12-21T20:55:10.403Z,4.63
2018-12-21T20:57:39.623Z,5.90
2018-12-21T21:00:12.081Z,10.50
2018-12-21T21:02:40.595Z,6.10
2018-12-21T21:05:09.212Z,5.27
2018-12-21T21:07:38.698Z,6.47
2018-12-21T21:10:11.428Z,6.30
2018-12-21T21:12:40.357Z,5.50
2018-12-21T21:15:10.738Z,7.77
2018-12-21T21:17:39.318Z,6.10
2018-12-21T21:20:10.909Z,5.93
2018-12-21T21:22:39.622Z,7.43
2018-12-21T21:25:08.295Z,4.87
2018-12-21T21:27:36.970Z,6.00
2018-12-21T21:30:08.733Z,5.77
2018-12-21T21:32:37.191Z,5.00
2018-12-21T21:35:06.195Z,5.33
2018-12-21T21:37:35.053Z,5.90
2018-12-21T21:40:04.104Z,6.17
2018-12-21T21:42:32.657Z,6.17
2018-12-21T21:45:01.148Z,8.23
2018-12-21T21:47:29.637Z,6.67
2018-12-21T21:49:58.357Z,6.40
2018-12-21T21:55:08.440Z,4.90
2018-12-21T21:57:39.576Z,7.17
2018-12-21T22:00:11.749Z,5.03
2018-12-21T22:02:40.491Z,5.70
2018-12-21T22:05:08.988Z,4.73
2018-12-21T22:07:37.719Z,5.53
2018-12-21T22:10:08.892Z,5.13
2018-12-21T22:12:37.571Z,6.73
2018-12-21T22:15:07.718Z,4.60
2018-12-21T22:17:36.293Z,4.83
2018-12-21T22:20:06.136Z,4.63
2018-12-21T22:22:35.011Z,6.07
2018-12-21T22:25:03.543Z,5.80
2018-12-21T22:27:32.003Z,5.13
2018-12-21T22:30:00.515Z,5.57
2018-12-21T22:32:31.898Z,5.73
2018-12-21T22:35:00.435Z,5.40
2018-12-21T22:37:28.916Z,4.37
2018-12-21T22:39:57.493Z,4.60
2018-12-21T22:45:03.799Z,4.70
2018-12-21T22:47:32.210Z,6.67
2018-12-21T22:50:00.587Z,3.97
2018-12-21T22:52:29.140Z,4.20
2018-12-21T22:54:57.584Z,4.50
2018-12-21T22:57:26.204Z,4.70
2018-12-21T22:59:55.173Z,4.77
2018-12-21T23:02:23.715Z,5.13
2018-12-21T23:04:52.217Z,3.53
2018-12-21T23:07:21.173Z,3.53
2018-12-21T23:09:49.685Z,4.20
2018-12-21T23:12:19.138Z,4.80
2018-12-21T23:14:49.133Z,3.97
2018-12-21T23:17:18.711Z,3.83
2018-12-21T23:19:48.369Z,3.60
2018-12-21T23:22:17.969Z,3.87
2018-12-21T23:24:46.951Z,4.90
2018-12-21T23:27:15.394Z,4.10
2018-12-21T23:29:44.041Z,4.07
2018-12-21T23:32:12.552Z,4.00
2018-12-21T23:34:41.404Z,4.43
2018-12-21T23:37:10.616Z,4.43
2018-12-21T23:39:39.001Z,5.07
2018-12-21T23:42:07.395Z,4.60
2018-12-21T23:44:35.913Z,4.57
2018-12-21T23:47:04.394Z,4.33
2018-12-21T23:49:32.926Z,4.87
2018-12-21T23:52:01.562Z,4.63
2018-12-21T23:54:29.954Z,4.03
2018-12-21T23:56:58.388Z,4.90
2018-12-21T23:59:27.012Z,4.40
